Flight Track Log - Related Links

Times and Time Zones

All times are in EDT time to prevent confusion due to time zone crossing. See the N8393X flight status page for this flight to view local times or setup timezone preferences in your user account.

Time Position Orientation Groundspeed Altitude Reporting Facility
EDT Latitude Longitude Course Direction KTS MPH feet Rate Location/Type
12:12PM 38.2833 -85.6167 350° North 113 130 2,500  Level Louisville TRACON
12:14PM 38.3192 -85.6453 328° Northwest  Level FlightAware Approximate
12:15PM 38.3667 -85.6167 328° Northwest 116 133 3,500  Level Louisville TRACON
12:15PM 38.3914 -85.6306 336° Northwest 101 116 3,700 265 Climbing Indianapolis Center
12:16PM 38.4122 -85.6717 303° West 133 153 4,000 339 Climbing Indianapolis Center
12:17PM 38.4005 -85.7014 350° North  Level Estimated
12:17PM 38.4292 -85.7142 297° West 134 154 4,400  Level Indianapolis Center
12:18PM 38.4293 -85.7077 350° North  Level Estimated
12:18PM 38.4464 -85.7547 298° West 133 153 4,800  Level Indianapolis Center
12:20PM 38.4622 -85.7953 297° West 129 148 5,300 476 Climbing Indianapolis Center
12:21PM 38.4842 -85.8389 303° West 123 142 5,800 435 Climbing Indianapolis Center
12:22PM 38.5056 -85.8739 308° West 124 143 6,200 439 Climbing Indianapolis Center
12:23PM 38.5328 -85.9033 320° Northwest 126 145 6,700 537 Climbing Indianapolis Center
12:24PM 38.5553 -85.9369 311° West 125 144 7,300 545 Climbing Indianapolis Center
12:25PM 38.5708 -85.9767 297° West 125 144 7,800 435 Climbing Indianapolis Center
12:26PM 38.5911 -86.0150 304° West 127 146 8,200 339 Climbing Indianapolis Center
12:27PM 38.6119 -86.0517 306° West 128 147 8,500 194 Climbing Indianapolis Center
12:28PM 38.6297 -86.0936 298° West 131 151 8,600 48 Climbing Indianapolis Center
12:29PM 38.6661 -86.1236 327° Northwest 134 154 8,600 -50 Level Indianapolis Center
12:30PM 38.6975 -86.1081 21° North 126 145 8,500  Descending Indianapolis Center
12:31PM 38.7261 -86.0814 36° Northeast 126 145 8,600 48 Climbing Indianapolis Center
12:32PM 38.7569 -86.0603 28° Northeast 125 144 8,600  Level Indianapolis Center
12:33PM 38.7892 -86.0461 19° North 123 142 8,600 50 Level Indianapolis Center
12:34PM 38.8233 -86.0381 10° North 124 143 8,700  Climbing Indianapolis Center
12:35PM 38.8558 -86.0250 17° North 123 142 8,600 -48 Descending Indianapolis Center
12:36PM 38.8906 -86.0142 14° North 124 143 8,600 50 Level Indianapolis Center
12:37PM 38.9244 -86.0056 11° North 125 144 8,700 48 Climbing Indianapolis Center
12:38PM 38.9642 -85.9925 14° North 123 142 8,700 -48 Level Indianapolis Center
12:39PM 38.9967 -85.9794 17° North 123 142 8,600  Descending Indianapolis Center
12:40PM 39.0292 -85.9619 23° Northeast 123 142 8,700 48 Climbing Indianapolis Center
12:41PM 39.0636 -85.9536 11° North 125 144 8,700  Level Indianapolis Center
12:42PM 39.0981 -85.9528 North 125 144 8,700 -50 Level Indianapolis Center
12:43PM 39.1325 -85.9447 10° North 126 145 8,600 -48 Descending Indianapolis Center
12:44PM 39.1750 -85.9325 13° North 130 150 8,600 48 Level Indianapolis Center
12:45PM 39.2094 -85.9294 North 127 146 8,700 -49 Climbing Indianapolis Center
12:46PM 39.2447 -85.9272 North 127 146 8,500 -242 Descending Indianapolis Center
12:47PM 39.2828 -85.9300 357° North 135 155 8,200 -432 Descending Indianapolis Center
12:48PM 39.3217 -85.9194 12° North 141 162 7,600 -435 Descending Indianapolis Center
12:49PM 39.3622 -85.9228 356° North 145 167 7,300 -344 Descending Indianapolis Center
12:50PM 39.4072 -85.9167 North 138 159 6,900 -443 Descending Indianapolis Center
12:51PM 39.4475 -85.9172 359° North 142 163 6,400 -476 Descending Indianapolis Center
12:52PM 39.4892 -85.9194 358° North 149 171 5,900 -532 Descending Indianapolis Center
12:53PM 39.5292 -85.9286 350° North 149 171 5,300 -634 Descending Indianapolis Center
12:55PM 39.5711 -85.9372 351° North 150 173 4,600 -677 Descending Indianapolis Center
12:56PM 39.6136 -85.9553 342° North 156 180 3,900 -443 Descending Indianapolis Center
12:57PM 39.6597 -85.9761 341° North 152 175 3,700 -290 Descending Indianapolis Center
12:58PM 39.6964 -85.9878 346° North 150 173 3,300 -341 Descending Indianapolis Center
12:59PM 39.7328 -85.9742 16° North 144 166 3,000 -145 Descending Indianapolis Center
01:00PM 39.7681 -85.9472 30° Northeast 138 159 3,000  Level Indianapolis Center
01:02PM 39.8258 -85.9849 333° Northwest  Level FlightAware Approximate
01:09PM 39.9333 -86.0333 North  Level FlightAware Approximate
01:10PM 39.9352 -86.0449 North  Level Estimated

Login

Don't have an account? Register now (free) for customized features, flight alerts, and more!